Orbital elements of COSMOS 970 DEB
| Launched | 20 December 1977 |
| Flight ended | – |
| Launch site | Tyuratam Missile and Space Center, Kazakhstan (Also known as Baikonur Cosmodrome) |
| Owner | Commonwealth of Independent States (former USSR) |
| NORAD ID | 10580 |
| Date fetched |
Epoch osculation |
Inc. [°] |
Ecc. | RA asc node [hr] |
Arg Peri. [°] |
Mean anom [°] |
Mean motion [rev/day] |
Abs. mag |
| Date fetched |
Epoch osculation |
Inc. [°] |
Ecc. | RA asc node [hr] |
Arg Peri. [°] |
Mean anom [°] |
Mean motion [rev/day] |
Abs. mag |
| 2026 May 03 17:57 | 2026 Apr 30 11:25:48 | 65.6797 | 0.00882 | 18.9609 | 287.0437 | 104.9821 | 13.44708 | – |
| 2026 May 02 17:57 | 2026 Apr 30 11:25:48 | 65.6797 | 0.00882 | 18.9609 | 287.0437 | 104.9821 | 13.44708 | – |
| 2026 May 01 17:56 | 2026 Apr 30 11:25:48 | 65.6797 | 0.00882 | 18.9609 | 287.0437 | 104.9821 | 13.44708 | – |
| 2026 Apr 30 17:56 | 2026 Apr 30 11:25:48 | 65.6797 | 0.00882 | 18.9609 | 287.0437 | 104.9821 | 13.44708 | – |
| 2026 Apr 29 17:57 | 2026 Apr 24 12:37:59 | 65.6797 | 0.00881 | 19.8970 | 289.4705 | 104.9821 | 13.44708 | – |
| 2026 Apr 28 17:56 | 2026 Apr 24 12:37:59 | 65.6797 | 0.00881 | 19.8970 | 289.4705 | 104.9821 | 13.44708 | – |
| 2026 Apr 27 17:58 | 2026 Apr 24 12:37:59 | 65.6797 | 0.00881 | 19.8970 | 289.4705 | 104.9821 | 13.44708 | – |
| 2026 Apr 26 17:58 | 2026 Apr 24 12:37:59 | 65.6797 | 0.00881 | 19.8970 | 289.4705 | 104.9821 | 13.44708 | – |
| 2026 Apr 25 17:58 | 2026 Apr 24 12:37:59 | 65.6797 | 0.00881 | 19.8970 | 289.4705 | 104.9821 | 13.44708 | – |
| 2026 Apr 24 17:59 | 2026 Apr 24 12:37:59 | 65.6797 | 0.00881 | 19.8970 | 289.4705 | 104.9821 | 13.44708 | – |
| 2026 Apr 23 17:57 | 2026 Apr 19 13:01:24 | 65.6803 | 0.00880 | 20.6811 | 291.5060 | 104.9821 | 13.44708 | – |
| 2026 Apr 22 17:57 | 2026 Apr 19 13:01:24 | 65.6803 | 0.00880 | 20.6811 | 291.5060 | 104.9821 | 13.44708 | – |
| 2026 Apr 21 17:57 | 2026 Apr 19 13:01:24 | 65.6803 | 0.00880 | 20.6811 | 291.5060 | 104.9821 | 13.44708 | – |
| 2026 Apr 20 17:57 | 2026 Apr 19 13:01:24 | 65.6803 | 0.00880 | 20.6811 | 291.5060 | 104.9821 | 13.44708 | – |
| 2026 Apr 19 17:58 | 2026 Apr 19 13:01:24 | 65.6803 | 0.00880 | 20.6811 | 291.5060 | 104.9821 | 13.44708 | – |
| 2026 Apr 18 17:56 | 2026 Apr 13 00:35:32 | 65.6813 | 0.00880 | 21.7064 | 294.1061 | 104.9821 | 13.44708 | – |
| 2026 Apr 16 17:57 | 2026 Apr 13 00:35:32 | 65.6813 | 0.00880 | 21.7064 | 294.1061 | 104.9821 | 13.44708 | – |
| 2026 Apr 14 17:57 | 2026 Apr 13 00:35:32 | 65.6813 | 0.00880 | 21.7064 | 294.1061 | 104.9821 | 13.44708 | – |
| 2026 Apr 13 17:57 | 2026 Apr 13 00:35:32 | 65.6813 | 0.00880 | 21.7064 | 294.1061 | 104.9821 | 13.44708 | – |
| 2026 Apr 12 17:57 | 2026 Apr 08 14:36:35 | 65.6823 | 0.00880 | 22.4011 | 295.8712 | 104.9821 | 13.44708 | – |
| 2026 Apr 11 17:57 | 2026 Apr 08 14:36:35 | 65.6823 | 0.00880 | 22.4011 | 295.8712 | 104.9821 | 13.44708 | – |
| 2026 Apr 10 17:58 | 2026 Apr 08 14:36:35 | 65.6823 | 0.00880 | 22.4011 | 295.8712 | 104.9821 | 13.44708 | – |
| 2026 Apr 09 18:01 | 2026 Apr 08 14:36:35 | 65.6823 | 0.00880 | 22.4011 | 295.8712 | 104.9821 | 13.44708 | – |
| 2026 Apr 08 17:57 | 2026 Apr 08 14:36:35 | 65.6823 | 0.00880 | 22.4011 | 295.8712 | 104.9821 | 13.44708 | – |
| 2026 Apr 07 17:57 | 2026 Apr 02 03:57:58 | 65.6828 | 0.00881 | 23.4147 | 298.3807 | 104.9821 | 13.44708 | – |
| 2026 Apr 06 17:57 | 2026 Apr 02 03:57:58 | 65.6828 | 0.00881 | 23.4147 | 298.3807 | 104.9821 | 13.44708 | – |